Time;durP1;ratioP1;P1;durP2;ratioP2;P2;SDS_P1;SDS_P2;PMS_P1;PMS_P2;Temp;Humidity;BMP_temperature;BMP_pressure;BME280_temperature;BME280_humidity;BME280_pressure;Samples;Min_cycle;Max_cycle;Signal;HPM_P1;HPM_P2
2023/10/28 00:00:49;;;;;;;31.98;20.80;;;11.20;99.90;;;;;;5014560;28;20550;-63
2023/10/28 00:03:15;;;;;;;34.65;21.08;;;11.20;99.90;;;;;;5014352;28;20187;-62
2023/10/28 00:05:41;;;;;;;32.15;19.83;;;11.20;99.90;;;;;;5030770;28;20212;-63
2023/10/28 00:08:07;;;;;;;33.00;19.50;;;11.20;99.90;;;;;;5031763;28;20277;-62
2023/10/28 00:10:35;;;;;;;33.15;20.42;;;11.20;99.90;;;;;;5031805;28;20182;-65
2023/10/28 00:13:02;;;;;;;29.70;19.48;;;11.20;99.90;;;;;;5030093;28;20203;-69
2023/10/28 00:15:28;;;;;;;31.30;19.70;;;11.20;99.90;;;;;;5031792;28;20216;-63
2023/10/28 00:17:54;;;;;;;31.42;19.80;;;11.20;99.90;;;;;;5034733;28;20184;-62
2023/10/28 00:20:21;;;;;;;30.35;19.38;;;11.30;99.90;;;;;;5035510;28;20180;-61
2023/10/28 00:22:49;;;;;;;28.27;18.48;;;11.20;99.90;;;;;;5035109;28;20650;-64
2023/10/28 00:25:16;;;;;;;29.65;18.58;;;11.20;99.90;;;;;;5017910;28;20658;-64
2023/10/28 00:27:43;;;;;;;28.45;18.10;;;11.30;99.90;;;;;;5034856;28;20175;-65
2023/10/28 00:30:10;;;;;;;29.08;19.40;;;11.30;99.90;;;;;;5017435;28;20180;-65
2023/10/28 00:32:37;;;;;;;30.92;19.25;;;11.30;99.90;;;;;;5017330;28;20180;-69
2023/10/28 00:35:04;;;;;;;36.10;20.00;;;11.30;99.90;;;;;;5016848;28;20204;-62
2023/10/28 00:37:30;;;;;;;31.75;19.75;;;11.30;99.90;;;;;;5016902;28;20647;-63
2023/10/28 00:39:56;;;;;;;30.73;19.95;;;11.30;99.90;;;;;;5034564;28;20249;-70
2023/10/28 00:42:22;;;;;;;34.42;21.50;;;11.30;99.90;;;;;;5017182;28;20523;-66
2023/10/28 00:44:48;;;;;;;34.05;21.50;;;11.30;99.90;;;;;;5034390;28;20172;-66
2023/10/28 00:47:14;;;;;;;37.97;22.35;;;11.30;99.90;;;;;;5016501;28;20231;-63
2023/10/28 00:49:42;;;;;;;36.58;22.15;;;11.30;99.90;;;;;;5016695;28;20180;-67
2023/10/28 00:52:09;;;;;;;40.95;23.17;;;11.30;99.90;;;;;;5034495;28;20204;-63
2023/10/28 00:54:35;;;;;;;38.13;23.92;;;11.30;99.90;;;;;;5016979;28;20211;-66
2023/10/28 00:57:03;;;;;;;39.88;24.13;;;11.30;99.90;;;;;;5034232;28;20617;-68
2023/10/28 00:59:30;;;;;;;40.15;24.63;;;11.30;99.90;;;;;;5016947;28;20633;-62
2023/10/28 01:01:56;;;;;;;43.67;24.02;;;11.40;99.90;;;;;;5016578;28;20226;-62
2023/10/28 01:04:22;;;;;;;39.85;25.13;;;11.40;99.90;;;;;;5016683;28;20487;-68
2023/10/28 01:06:48;;;;;;;44.03;25.23;;;11.40;99.90;;;;;;5016560;28;20232;-62
2023/10/28 01:09:14;;;;;;;45.13;26.45;;;11.40;99.90;;;;;;5016814;28;20220;-65
2023/10/28 01:11:40;;;;;;;42.53;25.75;;;11.40;99.90;;;;;;5016407;28;20195;-69
2023/10/28 01:14:07;;;;;;;46.30;25.42;;;11.40;99.90;;;;;;5000055;28;20246;-63
2023/10/28 01:16:33;;;;;;;44.58;26.98;;;11.40;99.90;;;;;;5000002;28;20211;-70
2023/10/28 01:19:00;;;;;;;42.50;26.38;;;11.40;99.90;;;;;;5016410;28;20184;-62
2023/10/28 01:21:26;;;;;;;50.45;27.45;;;11.40;99.90;;;;;;5016397;28;20195;-66
2023/10/28 01:23:56;;;;;;;51.10;27.85;;;11.40;99.90;;;;;;5033919;28;20522;-62
2023/10/28 01:26:22;;;;;;;47.92;26.80;;;11.40;99.90;;;;;;5034479;28;20184;-66
2023/10/28 01:28:48;;;;;;;52.30;29.75;;;11.50;99.90;;;;;;5015325;28;20259;-70
2023/10/28 01:31:17;;;;;;;54.42;30.25;;;11.50;99.90;;;;;;5033684;28;20235;-65
2023/10/28 01:33:43;;;;;;;52.80;30.25;;;11.50;99.90;;;;;;5016155;28;20226;-68
2023/10/28 01:36:09;;;;;;;53.20;29.90;;;11.50;99.90;;;;;;5032949;28;20180;-61
2023/10/28 01:38:36;;;;;;;55.22;31.50;;;11.60;99.90;;;;;;5033739;28;20262;-67
2023/10/28 01:41:02;;;;;;;57.28;31.40;;;11.60;99.90;;;;;;5033399;28;20183;-63
2023/10/28 01:43:29;;;;;;;57.13;31.95;;;11.60;99.90;;;;;;5015735;28;20175;-68
2023/10/28 01:45:55;;;;;;;62.28;32.65;;;11.60;99.90;;;;;;5016218;28;20184;-64
2023/10/28 01:48:21;;;;;;;58.08;32.55;;;11.60;99.90;;;;;;5033545;28;20198;-62
2023/10/28 01:50:47;;;;;;;60.90;32.30;;;11.60;99.90;;;;;;5015653;28;20184;-69
2023/10/28 01:53:13;;;;;;;61.42;33.03;;;11.60;99.90;;;;;;5033215;28;20617;-63
2023/10/28 01:55:39;;;;;;;59.65;32.95;;;11.60;99.90;;;;;;5033023;28;20204;-62
2023/10/28 01:58:06;;;;;;;57.60;32.50;;;11.60;99.90;;;;;;5015420;28;20371;-66
2023/10/28 02:00:32;;;;;;;61.60;33.53;;;11.60;99.90;;;;;;5015393;28;20270;-62
2023/10/28 02:03:00;;;;;;;59.55;33.33;;;11.60;99.90;;;;;;4999298;28;20210;-67
2023/10/28 02:05:26;;;;;;;64.25;35.50;;;11.70;99.90;;;;;;5033321;28;20214;-66
2023/10/28 02:07:52;;;;;;;64.45;33.28;;;11.70;99.90;;;;;;5015361;28;20274;-66
2023/10/28 02:10:18;;;;;;;60.50;33.63;;;11.70;99.90;;;;;;5015074;28;20180;-66
2023/10/28 02:12:44;;;;;;;60.20;32.70;;;11.70;99.90;;;;;;5033037;28;20183;-62
2023/10/28 02:15:10;;;;;;;59.05;33.15;;;11.70;99.90;;;;;;5031892;28;20211;-62
2023/10/28 02:17:38;;;;;;;62.05;34.50;;;11.70;99.90;;;;;;5032862;28;20627;-64
2023/10/28 02:20:06;;;;;;;65.03;34.35;;;11.70;99.90;;;;;;5014909;28;20211;-66
2023/10/28 02:22:33;;;;;;;62.53;34.85;;;11.70;99.90;;;;;;5031293;28;20215;-62
2023/10/28 02:24:59;;;;;;;59.55;34.55;;;11.70;99.90;;;;;;5015298;28;20183;-62
2023/10/28 02:27:25;;;;;;;60.63;33.28;;;11.70;99.90;;;;;;5032260;28;20200;-61
2023/10/28 02:29:51;;;;;;;66.93;35.15;;;11.70;99.90;;;;;;5015198;28;20217;-68
2023/10/28 02:32:17;;;;;;;63.70;34.10;;;11.70;99.90;;;;;;5015246;28;20192;-68
2023/10/28 02:34:43;;;;;;;63.65;34.58;;;11.70;99.90;;;;;;5014529;28;20562;-69
2023/10/28 02:37:10;;;;;;;67.78;35.05;;;11.70;99.90;;;;;;5032719;28;20187;-67
2023/10/28 02:39:37;;;;;;;69.07;34.15;;;11.70;99.90;;;;;;5014476;28;20191;-68
2023/10/28 02:42:04;;;;;;;70.07;34.42;;;11.70;99.90;;;;;;5014181;28;20302;-65
2023/10/28 02:44:30;;;;;;;62.45;34.75;;;11.70;99.90;;;;;;4998804;28;20276;-61
2023/10/28 02:46:57;;;;;;;67.60;35.35;;;11.60;99.90;;;;;;5014622;28;20195;-68
2023/10/28 02:49:23;;;;;;;64.13;35.78;;;11.50;99.90;;;;;;5032537;28;20187;-69
2023/10/28 02:51:49;;;;;;;64.32;34.42;;;11.50;99.90;;;;;;5014863;28;20683;-61
2023/10/28 02:54:15;;;;;;;63.00;34.22;;;11.40;99.90;;;;;;5032289;28;20242;-65
2023/10/28 02:56:42;;;;;;;64.40;34.90;;;11.40;99.90;;;;;;5014408;28;20216;-67
2023/10/28 02:59:09;;;;;;;71.00;35.50;;;11.30;99.90;;;;;;5031932;28;20200;-62
2023/10/28 03:01:38;;;;;;;74.25;36.38;;;11.30;99.90;;;;;;5032650;28;20588;-63
2023/10/28 03:04:04;;;;;;;70.15;36.28;;;11.20;99.90;;;;;;5031849;28;20188;-61
2023/10/28 03:06:31;;;;;;;68.72;34.88;;;11.10;99.90;;;;;;5031784;28;20176;-65
2023/10/28 03:08:57;;;;;;;67.82;34.22;;;11.10;99.90;;;;;;5014295;28;20255;-63
2023/10/28 03:11:23;;;;;;;72.80;34.67;;;11.00;99.90;;;;;;5031576;28;20207;-60
2023/10/28 03:13:49;;;;;;;68.65;34.53;;;11.00;99.90;;;;;;5032020;28;20184;-67
2023/10/28 03:16:15;;;;;;;66.38;34.67;;;11.00;99.90;;;;;;5032479;28;20615;-61
2023/10/28 03:18:41;;;;;;;67.53;34.35;;;11.00;99.90;;;;;;5014431;28;20175;-62
2023/10/28 03:21:06;;;;;;;70.18;35.13;;;11.00;99.90;;;;;;5032312;28;20327;-68
2023/10/28 03:23:32;;;;;;;60.38;34.15;;;11.00;99.90;;;;;;5014843;28;20192;-70
2023/10/28 03:25:58;;;;;;;63.75;34.00;;;11.00;99.90;;;;;;5014577;28;20230;-62
2023/10/28 03:28:24;;;;;;;70.28;35.05;;;11.00;99.90;;;;;;5032279;28;20628;-61
2023/10/28 03:30:50;;;;;;;64.22;33.53;;;11.00;99.90;;;;;;5031945;28;20242;-66
2023/10/28 03:33:16;;;;;;;63.80;34.15;;;11.00;99.90;;;;;;5014514;28;20188;-65
2023/10/28 03:35:44;;;;;;;61.75;33.70;;;11.00;99.90;;;;;;5032098;28;20223;-62
2023/10/28 03:38:10;;;;;;;57.08;32.50;;;11.00;99.90;;;;;;5031961;28;20586;-62
2023/10/28 03:40:38;;;;;;;57.03;32.05;;;11.00;99.90;;;;;;5014064;28;20202;-63
2023/10/28 03:43:04;;;;;;;58.53;32.15;;;11.00;99.90;;;;;;5032037;28;20180;-62
2023/10/28 03:45:30;;;;;;;55.33;31.05;;;11.00;99.90;;;;;;5014047;28;20550;-61
2023/10/28 03:47:56;;;;;;;54.20;31.15;;;11.00;99.90;;;;;;5031707;28;20499;-62
2023/10/28 03:50:22;;;;;;;55.10;30.88;;;11.00;99.90;;;;;;5031439;28;20575;-67
2023/10/28 03:52:48;;;;;;;59.95;31.35;;;10.90;99.90;;;;;;5034748;28;20192;-63
2023/10/28 03:55:14;;;;;;;58.30;31.83;;;11.00;99.90;;;;;;5034333;28;20520;-62
2023/10/28 03:57:40;;;;;;;59.30;31.27;;;10.90;99.90;;;;;;5034325;28;20192;-62
2023/10/28 04:00:10;;;;;;;53.10;31.08;;;10.90;99.90;;;;;;5035461;28;20302;-63
2023/10/28 04:02:39;;;;;;;54.97;30.10;;;10.90;99.90;;;;;;5035190;28;20176;-62
2023/10/28 04:05:06;;;;;;;55.50;30.23;;;10.90;99.90;;;;;;5035684;28;20187;-68
2023/10/28 04:07:32;;;;;;;56.88;30.92;;;10.90;99.90;;;;;;5035639;28;20289;-66
2023/10/28 04:10:03;;;;;;;52.05;28.85;;;10.90;99.90;;;;;;5035752;28;20199;-71
2023/10/28 04:12:30;;;;;;;54.63;30.88;;;10.90;99.90;;;;;;5035359;28;20274;-62
2023/10/28 04:14:57;;;;;;;64.03;31.65;;;10.90;99.90;;;;;;5034255;28;20264;-65
2023/10/28 04:17:24;;;;;;;53.38;30.45;;;10.90;99.90;;;;;;5017199;28;20190;-67
2023/10/28 04:19:50;;;;;;;58.40;29.85;;;10.90;99.90;;;;;;5035150;28;20188;-62
2023/10/28 04:22:16;;;;;;;61.67;30.40;;;11.00;99.90;;;;;;5033655;28;20274;-67
2023/10/28 04:24:42;;;;;;;54.72;30.17;;;11.00;99.90;;;;;;5035497;28;20180;-66
2023/10/28 04:27:08;;;;;;;47.50;27.08;;;11.00;99.90;;;;;;5035358;28;20274;-66
2023/10/28 04:29:34;;;;;;;53.78;29.15;;;11.00;99.90;;;;;;5035207;28;20216;-63
2023/10/28 04:32:00;;;;;;;52.75;28.77;;;11.00;99.90;;;;;;5017356;28;20183;-62
2023/10/28 04:34:26;;;;;;;48.25;29.52;;;11.00;99.90;;;;;;5034728;28;20225;-63
2023/10/28 04:36:53;;;;;;;51.55;28.67;;;11.00;99.90;;;;;;5016872;28;20205;-63
2023/10/28 04:39:18;;;;;;;50.25;28.83;;;11.00;99.90;;;;;;5034867;28;20653;-69
2023/10/28 04:41:44;;;;;;;49.80;29.77;;;11.00;99.90;;;;;;5033316;28;20184;-62
2023/10/28 04:44:13;;;;;;;56.60;30.10;;;11.00;99.90;;;;;;5000730;28;20182;-63
2023/10/28 04:46:40;;;;;;;47.78;28.13;;;11.00;99.90;;;;;;5034349;28;20175;-61
2023/10/28 04:49:06;;;;;;;45.80;27.90;;;11.00;99.90;;;;;;5034932;28;20188;-67
2023/10/28 04:51:32;;;;;;;53.22;28.98;;;11.00;99.90;;;;;;5034680;28;20262;-64
2023/10/28 04:53:58;;;;;;;52.67;27.88;;;11.00;99.90;;;;;;5016421;28;20219;-70
2023/10/28 04:56:24;;;;;;;50.15;29.67;;;11.10;99.90;;;;;;5034622;28;20180;-68
2023/10/28 04:58:49;;;;;;;53.17;28.00;;;11.10;99.90;;;;;;5033308;28;20597;-61
2023/10/28 05:01:15;;;;;;;55.97;29.13;;;11.10;99.90;;;;;;5033108;28;20184;-67
2023/10/28 05:03:41;;;;;;;49.47;29.45;;;11.10;99.90;;;;;;5016299;28;20180;-63
2023/10/28 05:06:09;;;;;;;63.80;29.42;;;11.10;99.90;;;;;;5034205;28;20698;-65
2023/10/28 05:08:36;;;;;;;50.63;27.98;;;11.10;99.90;;;;;;5016286;28;20646;-61
2023/10/28 05:11:03;;;;;;;47.00;27.38;;;11.10;99.90;;;;;;5034398;28;20207;-65
2023/10/28 05:13:29;;;;;;;47.47;26.95;;;11.10;99.90;;;;;;5033030;28;20195;-64
2023/10/28 05:15:55;;;;;;;48.60;27.13;;;11.10;99.90;;;;;;5016423;28;20203;-65
2023/10/28 05:18:20;;;;;;;49.58;28.13;;;11.10;99.90;;;;;;5033804;28;20195;-63
2023/10/28 05:20:46;;;;;;;55.15;28.40;;;11.20;99.90;;;;;;5033777;28;20620;-66
2023/10/28 05:23:13;;;;;;;49.95;27.90;;;11.20;99.90;;;;;;5033662;28;20267;-65
2023/10/28 05:25:39;;;;;;;47.92;27.60;;;11.20;99.90;;;;;;5034196;28;20180;-62
2023/10/28 05:28:05;;;;;;;52.97;28.20;;;11.20;99.90;;;;;;5033962;28;20247;-67
2023/10/28 05:30:31;;;;;;;50.85;27.77;;;11.20;99.90;;;;;;5015965;28;20188;-65
2023/10/28 05:32:59;;;;;;;52.05;26.98;;;11.20;99.90;;;;;;5015682;28;20487;-69
2023/10/28 05:35:25;;;;;;;55.40;27.90;;;11.30;99.90;;;;;;5033965;28;20261;-61
2023/10/28 05:37:51;;;;;;;47.58;27.15;;;11.20;99.90;;;;;;5015935;28;20643;-63
2023/10/28 05:40:17;;;;;;;50.40;27.08;;;11.30;99.90;;;;;;5033498;28;20267;-62
2023/10/28 05:42:43;;;;;;;50.08;27.55;;;11.30;99.90;;;;;;5033682;28;20184;-61
2023/10/28 05:45:10;;;;;;;45.90;27.20;;;11.30;99.90;;;;;;5015944;28;20278;-61
2023/10/28 05:47:36;;;;;;;48.92;27.58;;;11.30;99.90;;;;;;5015892;28;20184;-61
2023/10/28 05:50:05;;;;;;;49.35;26.88;;;11.30;99.90;;;;;;5033410;28;20194;-69
2023/10/28 05:52:33;;;;;;;47.30;23.55;;;11.30;99.90;;;;;;5033725;28;20191;-66
2023/10/28 05:54:59;;;;;;;59.85;26.88;;;11.30;99.90;;;;;;5033282;28;20266;-62
2023/10/28 05:57:26;;;;;;;54.83;27.30;;;11.30;99.90;;;;;;5015660;28;20187;-63
2023/10/28 05:59:52;;;;;;;50.05;27.05;;;11.30;99.90;;;;;;5033346;28;20208;-67
2023/10/28 06:02:18;;;;;;;43.50;25.83;;;11.30;99.90;;;;;;5033018;28;20203;-62
2023/10/28 06:04:44;;;;;;;51.13;28.02;;;11.30;99.90;;;;;;5015312;28;20172;-60
2023/10/28 06:07:10;;;;;;;56.67;26.55;;;11.30;99.90;;;;;;5033324;28;20226;-62
2023/10/28 06:09:36;;;;;;;49.05;26.30;;;11.30;99.90;;;;;;4999236;28;20709;-61
2023/10/28 06:12:02;;;;;;;44.80;26.17;;;11.30;99.90;;;;;;5032862;28;20343;-62
2023/10/28 06:14:28;;;;;;;50.50;26.52;;;11.40;99.90;;;;;;5032379;28;20263;-62
2023/10/28 06:16:55;;;;;;;43.65;25.60;;;11.30;99.90;;;;;;5032979;28;20188;-63
2023/10/28 06:19:23;;;;;;;48.85;27.02;;;11.30;99.90;;;;;;5015025;28;20198;-61
2023/10/28 06:21:51;;;;;;;49.42;26.95;;;11.30;99.90;;;;;;5032525;28;20659;-63
2023/10/28 06:24:18;;;;;;;46.90;25.23;;;11.30;99.90;;;;;;5032935;28;20187;-65
2023/10/28 06:26:47;;;;;;;41.40;25.30;;;11.30;99.90;;;;;;5032433;28;20250;-61
2023/10/28 06:29:13;;;;;;;51.00;26.77;;;11.40;99.90;;;;;;5032670;28;20179;-69
2023/10/28 06:31:40;;;;;;;44.95;25.98;;;11.30;99.90;;;;;;5015394;28;20314;-63
2023/10/28 06:34:06;;;;;;;44.22;25.63;;;11.30;99.90;;;;;;5032186;28;20212;-62
2023/10/28 06:36:33;;;;;;;46.28;25.88;;;11.40;99.90;;;;;;5032350;28;20184;-66
2023/10/28 06:38:59;;;;;;;49.25;25.10;;;11.40;99.90;;;;;;5031017;28;20626;-63
2023/10/28 06:41:25;;;;;;;47.17;24.70;;;11.40;99.90;;;;;;5031239;28;20194;-63
2023/10/28 06:43:52;;;;;;;39.60;24.02;;;11.40;99.90;;;;;;5032847;28;20615;-62
2023/10/28 06:46:19;;;;;;;44.80;24.27;;;11.40;99.90;;;;;;5015195;28;20204;-62
2023/10/28 06:48:46;;;;;;;38.88;24.00;;;11.50;99.90;;;;;;5015148;28;20571;-61
2023/10/28 06:51:12;;;;;;;38.88;22.45;;;11.50;99.90;;;;;;5032684;28;20595;-63
2023/10/28 06:53:42;;;;;;;49.00;24.55;;;11.50;99.90;;;;;;5015206;28;20195;-61
2023/10/28 06:56:08;;;;;;;46.90;22.90;;;11.50;99.90;;;;;;5032171;28;20278;-67
2023/10/28 06:58:34;;;;;;;42.75;22.92;;;11.60;99.90;;;;;;5032155;28;20708;-68
2023/10/28 07:01:00;;;;;;;37.15;23.02;;;11.60;99.90;;;;;;5031931;28;20179;-60
2023/10/28 07:03:27;;;;;;;38.10;22.20;;;11.60;99.90;;;;;;5030959;28;20218;-67
2023/10/28 07:05:53;;;;;;;34.55;21.55;;;11.60;99.90;;;;;;5014497;28;20271;-69
2023/10/28 07:08:20;;;;;;;35.58;20.92;;;11.70;99.90;;;;;;5014086;28;20255;-65
2023/10/28 07:10:47;;;;;;;33.33;20.00;;;11.70;99.90;;;;;;4998243;28;20196;-68
2023/10/28 07:13:13;;;;;;;39.70;20.83;;;11.70;99.90;;;;;;5031659;28;20187;-65
2023/10/28 07:15:39;;;;;;;34.45;20.05;;;11.80;99.90;;;;;;5031709;28;20664;-63
2023/10/28 07:18:07;;;;;;;31.48;19.30;;;11.80;99.90;;;;;;5014115;28;20188;-62
2023/10/28 07:20:33;;;;;;;29.65;18.42;;;11.80;99.90;;;;;;5014601;28;20187;-66
2023/10/28 07:23:02;;;;;;;29.50;16.98;;;11.80;99.90;;;;;;4997732;28;20192;-62
2023/10/28 07:25:29;;;;;;;33.97;17.35;;;11.90;99.90;;;;;;5030823;28;20183;-62
2023/10/28 07:27:55;;;;;;;29.00;16.40;;;11.90;99.90;;;;;;5034665;28;20193;-63
2023/10/28 07:30:22;;;;;;;22.90;15.48;;;11.90;99.90;;;;;;5036025;28;20596;-63
2023/10/28 07:32:49;;;;;;;26.85;15.40;;;11.90;99.90;;;;;;5018093;28;20282;-66
2023/10/28 07:35:16;;;;;;;24.52;13.60;;;11.90;99.90;;;;;;5034338;28;20207;-66
2023/10/28 07:37:42;;;;;;;24.88;13.35;;;11.90;99.90;;;;;;5035705;28;20595;-61
2023/10/28 07:40:12;;;;;;;19.60;12.07;;;11.90;99.90;;;;;;5035634;28;20176;-64
2023/10/28 07:42:37;;;;;;;21.48;12.73;;;11.90;99.90;;;;;;5036141;28;20566;-69
2023/10/28 07:45:04;;;;;;;21.40;12.65;;;12.00;99.90;;;;;;5035597;28;20278;-68
2023/10/28 07:47:31;;;;;;;20.10;11.80;;;12.00;99.90;;;;;;5035604;28;20188;-66
2023/10/28 07:49:57;;;;;;;18.10;11.65;;;12.00;99.90;;;;;;5034591;28;20180;-59
2023/10/28 07:52:23;;;;;;;20.20;11.73;;;12.00;99.90;;;;;;5035290;28;20184;-62
2023/10/28 07:54:49;;;;;;;16.63;11.30;;;12.10;99.90;;;;;;5035189;28;20691;-64
2023/10/28 07:57:15;;;;;;;18.60;11.18;;;12.20;99.90;;;;;;5035552;28;20195;-62
2023/10/28 07:59:42;;;;;;;19.20;11.05;;;12.20;99.90;;;;;;5018002;28;20219;-69
2023/10/28 08:02:07;;;;;;;16.52;10.57;;;12.20;99.90;;;;;;5033890;28;20270;-60
2023/10/28 08:04:33;;;;;;;22.38;10.32;;;12.30;99.90;;;;;;5035243;28;20207;-66
2023/10/28 08:07:00;;;;;;;20.38;10.60;;;12.30;99.90;;;;;;5035203;28;20234;-69
2023/10/28 08:09:28;;;;;;;21.35;10.68;;;12.30;99.90;;;;;;5035062;28;20237;-68
2023/10/28 08:11:55;;;;;;;17.70;9.88;;;12.30;99.90;;;;;;5035337;28;20236;-62
2023/10/28 08:14:21;;;;;;;20.27;9.50;;;12.40;99.90;;;;;;5035187;28;20226;-68
2023/10/28 08:16:47;;;;;;;13.98;9.05;;;12.40;99.90;;;;;;5035226;28;20524;-70
2023/10/28 08:19:13;;;;;;;15.77;8.63;;;12.40;99.90;;;;;;5017236;28;20230;-62
2023/10/28 08:21:39;;;;;;;15.07;9.02;;;12.40;99.90;;;;;;5034870;28;20628;-62
2023/10/28 08:24:08;;;;;;;13.77;8.65;;;12.40;99.90;;;;;;5000702;28;20187;-65
2023/10/28 08:26:34;;;;;;;14.05;9.50;;;12.40;99.90;;;;;;5034727;28;20702;-68
2023/10/28 08:29:00;;;;;;;18.15;9.05;;;12.40;99.90;;;;;;5034727;28;20176;-67
2023/10/28 08:31:28;;;;;;;15.82;9.15;;;12.40;99.90;;;;;;5017200;28;20191;-66
2023/10/28 08:33:54;;;;;;;14.80;8.77;;;12.40;99.90;;;;;;5034526;28;20269;-61
2023/10/28 08:36:20;;;;;;;17.48;9.43;;;12.40;99.90;;;;;;5016927;28;20702;-70
2023/10/28 08:38:47;;;;;;;17.88;9.40;;;12.40;99.90;;;;;;5016424;28;20184;-62
2023/10/28 08:41:16;;;;;;;16.67;8.50;;;12.50;99.90;;;;;;5034407;28;20183;-62
2023/10/28 08:43:42;;;;;;;11.35;8.45;;;12.50;99.90;;;;;;5034827;28;20392;-66
2023/10/28 08:46:08;;;;;;;15.20;8.90;;;12.60;99.90;;;;;;5034367;28;20184;-68
2023/10/28 08:48:37;;;;;;;13.32;8.70;;;12.60;99.90;;;;;;5016845;28;20176;-62
2023/10/28 08:51:06;;;;;;;14.75;8.10;;;12.60;99.90;;;;;;5033876;28;20234;-65
2023/10/28 08:53:35;;;;;;;12.10;8.18;;;12.70;99.90;;;;;;5033941;28;20180;-67
2023/10/28 08:56:02;;;;;;;14.43;8.88;;;12.70;99.90;;;;;;5016290;28;20367;-68
2023/10/28 08:58:28;;;;;;;13.68;8.77;;;12.80;99.90;;;;;;5033980;28;20186;-67
2023/10/28 09:00:58;;;;;;;12.57;8.23;;;12.80;99.90;;;;;;5016525;28;20179;-66
2023/10/28 09:03:26;;;;;;;12.35;8.10;;;12.90;99.90;;;;;;5034344;28;20598;-64
2023/10/28 09:05:53;;;;;;;13.00;7.97;;;12.90;99.90;;;;;;5034030;28;20271;-62
2023/10/28 09:08:20;;;;;;;15.98;7.82;;;13.00;99.90;;;;;;5034456;28;20729;-62
2023/10/28 09:10:46;;;;;;;10.38;7.50;;;13.00;99.90;;;;;;5015903;28;20225;-62
2023/10/28 09:13:16;;;;;;;12.75;7.57;;;13.00;99.90;;;;;;5016409;28;20186;-62
2023/10/28 09:15:42;;;;;;;13.30;7.13;;;13.10;99.90;;;;;;5033913;28;20231;-64
2023/10/28 09:18:08;;;;;;;12.18;7.35;;;13.00;99.90;;;;;;5033621;28;20172;-61
2023/10/28 09:20:40;;;;;;;9.57;7.60;;;13.10;99.90;;;;;;5000112;28;20187;-67
2023/10/28 09:23:06;;;;;;;12.23;7.40;;;13.10;99.90;;;;;;5016612;28;20175;-61
2023/10/28 09:25:34;;;;;;;10.77;6.80;;;13.20;99.90;;;;;;5033401;28;20180;-70
2023/10/28 09:28:03;;;;;;;14.85;6.90;;;13.20;99.90;;;;;;5033836;28;20176;-67
2023/10/28 09:30:29;;;;;;;11.23;7.13;;;13.30;99.90;;;;;;5033509;28;20172;-64
2023/10/28 09:32:55;;;;;;;10.18;6.30;;;13.30;99.90;;;;;;5033380;28;20246;-63
2023/10/28 09:35:23;;;;;;;12.35;6.60;;;13.40;99.90;;;;;;5032538;28;20215;-59
2023/10/28 09:37:50;;;;;;;12.20;6.18;;;13.40;99.90;;;;;;5033705;28;20184;-66
2023/10/28 09:40:17;;;;;;;8.60;6.25;;;13.40;99.90;;;;;;5033134;28;20203;-61
2023/10/28 09:42:43;;;;;;;13.15;6.68;;;13.40;99.90;;;;;;5033074;28;20186;-68
2023/10/28 09:45:09;;;;;;;9.15;6.20;;;13.40;99.90;;;;;;5015710;28;20263;-62
2023/10/28 09:48:04;;;;;;;15.50;6.10;;;13.50;99.90;;;;;;5015973;28;20214;-61
2023/10/28 09:50:31;;;;;;;9.20;5.90;;;13.50;99.90;;;;;;5031451;28;20648;-67
2023/10/28 09:52:57;;;;;;;15.13;6.07;;;13.60;99.90;;;;;;5033091;28;20214;-64
2023/10/28 09:55:35;;;;;;;10.07;5.70;;;13.60;99.90;;;;;;5032984;28;20207;-69
2023/10/28 09:58:07;;;;;;;8.57;5.60;;;13.60;99.90;;;;;;5033115;28;20176;-63
2023/10/28 10:00:37;;;;;;;9.45;4.85;;;13.70;99.90;;;;;;5033084;28;20167;-69
2023/10/28 10:03:41;;;;;;;10.40;5.70;;;13.70;99.90;;;;;;5033017;28;20476;-65
2023/10/28 10:06:08;;;;;;;11.60;7.53;;;13.70;99.90;;;;;;5015163;28;20180;-64
2023/10/28 10:08:36;;;;;;;10.88;5.57;;;13.70;99.90;;;;;;5032623;28;20223;-68
2023/10/28 10:11:06;;;;;;;9.18;6.13;;;13.80;99.90;;;;;;5032807;28;20269;-70
2023/10/28 10:13:44;;;;;;;11.13;5.97;;;13.80;99.90;;;;;;5032691;28;20229;-65
2023/10/28 10:16:22;;;;;;;12.05;5.07;;;13.80;99.90;;;;;;5014978;28;20219;-68
2023/10/28 10:18:53;;;;;;;10.25;4.97;;;13.80;99.90;;;;;;5032624;28;20188;-70
2023/10/28 10:21:19;;;;;;;9.15;4.82;;;13.80;99.90;;;;;;5015298;28;20180;-64
2023/10/28 10:23:50;;;;;;;11.88;5.45;;;13.70;99.90;;;;;;5014728;28;20257;-69
2023/10/28 10:26:35;;;;;;;10.90;5.07;;;13.70;99.90;;;;;;5032288;28;20187;-65
2023/10/28 10:29:03;;;;;;;8.88;4.70;;;13.70;99.90;;;;;;5014528;28;20303;-67
2023/10/28 10:31:34;;;;;;;10.43;4.75;;;13.80;99.90;;;;;;5032101;28;20590;-64
2023/10/28 10:34:07;;;;;;;10.48;4.68;;;13.80;99.90;;;;;;4998480;28;20187;-64
2023/10/28 10:36:43;;;;;;;9.82;5.20;;;13.70;99.90;;;;;;5014472;28;20172;-65
2023/10/28 10:39:18;;;;;;;9.82;5.13;;;13.70;99.90;;;;;;5014781;28;20191;-62
2023/10/28 10:41:51;;;;;;;8.50;5.03;;;13.70;99.90;;;;;;5032300;28;20167;-67
2023/10/28 10:44:33;;;;;;;10.60;5.05;;;13.70;99.90;;;;;;5032291;28;20198;-66
2023/10/28 10:47:00;;;;;;;14.10;5.45;;;13.60;99.90;;;;;;5014054;28;20231;-63
2023/10/28 10:49:26;;;;;;;14.95;4.78;;;13.60;99.90;;;;;;5014373;28;20179;-71
2023/10/28 10:51:53;;;;;;;10.45;4.82;;;13.70;99.90;;;;;;5014075;28;20269;-62
2023/10/28 10:54:19;;;;;;;10.60;4.80;;;13.80;99.90;;;;;;5031957;28;20207;-62
2023/10/28 10:56:45;;;;;;;13.00;6.10;;;13.80;99.90;;;;;;5032144;28;20242;-63
2023/10/28 10:59:12;;;;;;;30.33;18.48;;;13.90;99.90;;;;;;5014414;28;20527;-66
2023/10/28 11:01:38;;;;;;;13.07;5.15;;;13.90;99.90;;;;;;5012777;28;20180;-63
2023/10/28 11:04:06;;;;;;;10.52;5.35;;;13.90;99.90;;;;;;5031627;28;20183;-64
2023/10/28 11:06:32;;;;;;;9.63;4.75;;;14.00;99.90;;;;;;5031400;28;20655;-63
2023/10/28 11:09:03;;;;;;;9.23;4.75;;;13.90;99.90;;;;;;5030583;28;20173;-62
2023/10/28 11:11:29;;;;;;;8.43;4.30;;;14.00;99.90;;;;;;5013770;28;20271;-67
2023/10/28 11:13:56;;;;;;;12.55;4.60;;;14.00;99.90;;;;;;5014074;28;20184;-63
2023/10/28 11:16:27;;;;;;;9.18;4.75;;;14.10;99.90;;;;;;5031585;28;20245;-68
2023/10/28 11:18:52;;;;;;;9.02;4.55;;;14.10;99.90;;;;;;5013699;28;20617;-69
2023/10/28 11:21:23;;;;;;;13.70;4.85;;;14.10;99.90;;;;;;5013837;28;20640;-65
2023/10/28 11:23:49;;;;;;;10.30;4.22;;;14.10;99.90;;;;;;5031446;28;20156;-68
2023/10/28 11:26:19;;;;;;;12.45;4.50;;;14.10;99.90;;;;;;5031626;28;20596;-63
2023/10/28 11:28:45;;;;;;;14.30;7.85;;;14.10;99.90;;;;;;5031192;28;20187;-62
2023/10/28 11:31:12;;;;;;;13.68;4.53;;;14.10;99.90;;;;;;5013580;28;20183;-67
2023/10/28 11:33:38;;;;;;;8.75;4.70;;;14.10;99.90;;;;;;5031654;28;20207;-64
2023/10/28 11:36:04;;;;;;;10.00;4.43;;;14.10;99.90;;;;;;5031939;28;20220;-62
2023/10/28 11:38:34;;;;;;;10.75;4.47;;;14.10;99.90;;;;;;5014274;28;20233;-63
2023/10/28 11:41:07;;;;;;;9.45;4.35;;;14.10;99.90;;;;;;5030048;28;20203;-68
2023/10/28 11:43:34;;;;;;;8.75;4.20;;;14.20;99.90;;;;;;5031185;28;20179;-62
2023/10/28 11:46:00;;;;;;;15.60;4.55;;;14.20;99.90;;;;;;5013966;28;20179;-66
2023/10/28 11:48:26;;;;;;;9.25;5.03;;;14.20;99.90;;;;;;5031270;28;20203;-65
2023/10/28 11:50:56;;;;;;;20.15;5.43;;;14.20;99.90;;;;;;5030901;28;20263;-69
2023/10/28 11:53:27;;;;;;;9.27;4.10;;;14.30;99.90;;;;;;4996964;28;20184;-63
2023/10/28 11:55:54;;;;;;;8.80;4.10;;;14.30;99.90;;;;;;5031150;28;20188;-68
2023/10/28 11:58:24;;;;;;;9.27;4.18;;;14.30;99.90;;;;;;5031267;28;20597;-67
2023/10/28 12:00:53;;;;;;;11.30;4.75;;;14.40;99.90;;;;;;5031378;28;20394;-60
2023/10/28 12:03:19;;;;;;;10.77;5.20;;;14.40;99.90;;;;;;5030163;28;20613;-59
2023/10/28 12:05:46;;;;;;;9.93;4.20;;;14.40;99.90;;;;;;5030908;28;20225;-67
2023/10/28 12:08:12;;;;;;;10.35;4.10;;;14.40;99.90;;;;;;5031084;28;20258;-63
2023/10/28 12:10:48;;;;;;;10.98;4.00;;;14.40;99.90;;;;;;5013451;28;20218;-70
2023/10/28 12:13:14;;;;;;;7.32;4.18;;;14.40;99.90;;;;;;5033534;28;20175;-66
2023/10/28 12:15:41;;;;;;;11.02;3.90;;;14.50;99.90;;;;;;5033761;28;20204;-62
2023/10/28 12:18:07;;;;;;;9.82;3.60;;;14.50;99.90;;;;;;5034261;28;20638;-64
2023/10/28 12:20:34;;;;;;;11.52;3.58;;;14.50;99.90;;;;;;5016984;28;20275;-63
2023/10/28 12:23:00;;;;;;;11.00;4.18;;;14.50;99.90;;;;;;5034840;28;20199;-64
2023/10/28 12:25:26;;;;;;;5.90;3.33;;;14.50;99.90;;;;;;5033425;28;20179;-67
2023/10/28 12:27:53;;;;;;;13.30;3.78;;;14.50;99.90;;;;;;5016728;28;20263;-61
2023/10/28 12:30:19;;;;;;;12.27;3.90;;;14.50;99.90;;;;;;5034754;28;20180;-67